Terminal Aerodrome Forecast
Issued by NWS Binghamton, NY

Home | Current Version | Previous Version | Text Only | Print | Product List | Glossary On
Versions: 1 2 3 4 5 6 7 8 9 10 11 12 13 14 15 16 17 18
000
FTUS41 KBGM 061723
TAFAVP
TAF
KAVP 061723Z 0618/0718 22007KT P6SM SCT060 OVC200
     FM062000 21007KT P6SM BKN050
     FM062200 19005KT P6SM OVC040
     FM070100 15005KT P6SM SCT015 OVC025
     FM070900 00000KT P6SM OVC015
     FM071500 21006KT 6SM HZ BKN050=

USA.gov is the U.S. government's official web portal to all federal, state and local government web resources and services.